createdAt,value
2023-04-02T00:00:22.941Z,14.35
2023-04-02T00:05:52.837Z,14.37
2023-04-02T00:10:59.456Z,14.32
2023-04-02T00:16:28.958Z,14.30
2023-04-02T00:21:35.374Z,14.23
2023-04-02T00:26:44.999Z,14.19
2023-04-02T00:31:51.994Z,14.15
2023-04-02T00:36:58.058Z,14.11
2023-04-02T00:42:06.950Z,14.08
2023-04-02T00:47:21.747Z,14.09
2023-04-02T00:52:27.991Z,14.06
2023-04-02T00:57:31.129Z,14.08
2023-04-02T01:05:17.672Z,14.02
2023-04-02T01:10:49.579Z,13.95
2023-04-02T01:16:19.430Z,13.93
2023-04-02T01:21:42.661Z,13.88
2023-04-02T01:27:02.908Z,13.86
2023-04-02T01:32:19.055Z,13.78
2023-04-02T01:37:40.157Z,13.71
2023-04-02T01:43:08.480Z,13.65
2023-04-02T01:48:17.753Z,13.63
2023-04-02T01:53:22.350Z,13.58
2023-04-02T01:58:28.223Z,13.51
2023-04-02T02:03:31.925Z,13.44
2023-04-02T02:08:40.044Z,13.33
2023-04-02T02:13:48.232Z,13.24
2023-04-02T02:18:53.846Z,13.23
2023-04-02T02:23:57.658Z,13.21
2023-04-02T02:29:04.478Z,13.15
2023-04-02T02:34:23.378Z,13.07
2023-04-02T02:39:34.717Z,13.02
2023-04-02T02:44:49.783Z,12.98
2023-04-02T02:50:00.340Z,12.95
2023-04-02T02:55:39.000Z,12.86
2023-04-02T03:00:58.864Z,12.80
2023-04-02T03:06:23.496Z,12.72
2023-04-02T03:11:49.207Z,12.67
2023-04-02T03:17:03.599Z,12.62
2023-04-02T03:22:36.038Z,12.57
2023-04-02T03:27:48.067Z,12.52
2023-04-02T03:32:55.190Z,12.51
2023-04-02T03:38:16.711Z,12.50
2023-04-02T03:43:31.552Z,12.47
2023-04-02T03:48:55.732Z,12.44
2023-04-02T03:54:15.523Z,12.39
2023-04-02T03:59:29.944Z,12.36
2023-04-02T04:04:41.776Z,12.32
2023-04-02T04:09:53.430Z,12.29
2023-04-02T04:15:06.574Z,12.24
2023-04-02T04:35:03.184Z,12.14
2023-04-02T04:40:32.346Z,12.15
2023-04-02T04:46:12.691Z,12.13
2023-04-02T04:52:01.016Z,12.11
2023-04-02T04:57:06.756Z,12.10
2023-04-02T05:16:14.765Z,12.06
2023-04-02T05:22:03.552Z,12.04
2023-04-02T05:28:03.406Z,12.00
2023-04-02T05:33:29.002Z,11.98
2023-04-02T05:38:48.922Z,11.94
2023-04-02T05:44:17.897Z,11.94
2023-04-02T06:01:18.223Z,11.98
2023-04-02T06:06:56.533Z,12.00
2023-04-02T06:12:28.011Z,12.03
2023-04-02T06:17:56.111Z,12.05
2023-04-02T06:23:12.598Z,12.09
2023-04-02T06:28:35.338Z,12.12
2023-04-02T06:34:03.743Z,12.15
2023-04-02T06:39:25.140Z,12.18
2023-04-02T06:44:35.844Z,12.23
2023-04-02T06:50:48.648Z,12.33
2023-04-02T06:56:30.210Z,12.38
2023-04-02T07:01:37.817Z,12.40
2023-04-02T07:06:42.346Z,12.53
2023-04-02T07:11:50.542Z,12.96
2023-04-02T07:17:06.423Z,13.49
2023-04-02T07:22:25.441Z,14.06
2023-04-02T07:27:37.825Z,14.56
2023-04-02T07:32:53.561Z,15.02
2023-04-02T07:37:58.286Z,15.46
2023-04-02T07:43:06.518Z,15.71
2023-04-02T07:48:15.267Z,15.95
2023-04-02T07:53:50.561Z,16.16
2023-04-02T07:58:55.834Z,16.41
2023-04-02T08:04:04.304Z,16.69
2023-04-02T08:09:08.100Z,16.85
2023-04-02T08:14:12.196Z,16.96
2023-04-02T08:19:14.728Z,17.19
2023-04-02T08:24:25.193Z,17.31
2023-04-02T08:29:33.440Z,17.46
2023-04-02T08:34:45.019Z,17.68
2023-04-02T08:39:51.277Z,17.79
2023-04-02T08:50:37.055Z,18.04
2023-04-02T08:56:18.893Z,18.23
2023-04-02T09:01:47.689Z,18.43
2023-04-02T09:07:14.631Z,18.50
2023-04-02T09:12:32.085Z,18.75
2023-04-02T09:17:50.561Z,18.84
2023-04-02T09:23:00.467Z,18.94
2023-04-02T09:28:09.730Z,18.88
2023-04-02T09:33:20.120Z,18.93
2023-04-02T09:38:36.623Z,19.11
2023-04-02T09:43:52.476Z,19.28
2023-04-02T09:49:02.671Z,19.60
2023-04-02T09:54:18.011Z,19.68
2023-04-02T09:59:24.949Z,20.06
2023-04-02T10:04:45.425Z,20.39
2023-04-02T10:09:58.796Z,20.50
2023-04-02T10:15:03.324Z,20.69
2023-04-02T10:20:28.480Z,20.73
2023-04-02T10:25:43.695Z,20.84
2023-04-02T10:31:02.627Z,20.98
2023-04-02T10:36:33.291Z,21.20
2023-04-02T10:41:59.807Z,21.49
2023-04-02T10:47:27.411Z,21.57
2023-04-02T10:52:34.380Z,21.57
2023-04-02T10:57:47.736Z,21.60
2023-04-02T11:03:14.648Z,21.68
2023-04-02T11:08:19.203Z,21.80
2023-04-02T11:13:35.682Z,21.96
2023-04-02T11:18:38.637Z,22.06
2023-04-02T11:24:04.316Z,22.20
2023-04-02T11:29:12.347Z,22.28
2023-04-02T11:34:37.085Z,22.32
2023-04-02T11:39:55.082Z,22.35
2023-04-02T11:45:29.017Z,22.52
2023-04-02T11:50:44.460Z,22.61
2023-04-02T11:56:24.526Z,22.74
2023-04-02T12:01:30.241Z,22.62
2023-04-02T12:07:11.411Z,22.70
2023-04-02T12:12:41.726Z,22.83
2023-04-02T12:17:45.050Z,22.88
2023-04-02T12:22:51.476Z,22.95
2023-04-02T12:28:17.991Z,22.99
2023-04-02T12:33:19.877Z,22.77
2023-04-02T12:38:24.777Z,22.61
2023-04-02T12:43:32.478Z,22.43
2023-04-02T12:48:39.379Z,22.16
2023-04-02T12:53:42.088Z,21.94
2023-04-02T12:58:44.415Z,21.89
2023-04-02T13:04:10.720Z,21.72
2023-04-02T13:09:44.926Z,21.54
2023-04-02T13:14:52.973Z,21.44
2023-04-02T13:19:55.131Z,21.47
2023-04-02T13:24:57.347Z,21.43
2023-04-02T13:30:12.023Z,21.53
2023-04-02T13:35:21.302Z,21.47
2023-04-02T13:40:23.508Z,21.22
2023-04-02T13:45:40.942Z,20.98
2023-04-02T13:50:43.111Z,20.74
2023-04-02T13:55:45.309Z,20.60
2023-04-02T14:00:48.126Z,20.52
2023-04-02T14:12:10.211Z,19.91
2023-04-02T14:17:58.235Z,19.97
2023-04-02T14:23:28.950Z,19.93
2023-04-02T14:29:12.476Z,20.08
2023-04-02T14:34:23.207Z,19.91
2023-04-02T14:39:49.890Z,19.94
2023-04-02T14:45:01.954Z,19.94
2023-04-02T14:50:29.700Z,19.96
2023-04-02T14:55:44.210Z,20.06
2023-04-02T15:00:57.480Z,20.11
2023-04-02T15:06:03.496Z,19.91
2023-04-02T15:11:34.263Z,19.67
2023-04-02T15:16:36.646Z,19.59
2023-04-02T15:21:57.689Z,19.30
2023-04-02T15:27:18.252Z,19.07
2023-04-02T15:32:42.769Z,18.91
2023-04-02T15:38:27.602Z,18.77
2023-04-02T15:43:32.409Z,18.66
2023-04-02T15:49:16.435Z,18.60
2023-04-02T15:54:36.787Z,18.44
2023-04-02T16:00:07.372Z,18.32
2023-04-02T16:05:31.916Z,18.06
2023-04-02T16:10:42.615Z,17.85
2023-04-02T16:15:58.715Z,17.70
2023-04-02T16:21:04.109Z,17.62
2023-04-02T16:26:14.904Z,17.55
2023-04-02T16:31:27.411Z,17.71
2023-04-02T16:37:08.221Z,17.78
2023-04-02T16:42:53.249Z,17.85
2023-04-02T16:48:07.418Z,17.79
2023-04-02T16:53:19.427Z,18.01
2023-04-02T16:58:24.159Z,18.20
2023-04-02T17:03:38.177Z,18.28
2023-04-02T17:08:44.401Z,18.38
2023-04-02T17:14:18.409Z,18.48
2023-04-02T17:19:31.602Z,18.58
2023-04-02T17:24:42.058Z,18.74
2023-04-02T17:35:43.256Z,18.87
2023-04-02T17:41:23.938Z,18.88
2023-04-02T17:46:45.074Z,18.78
2023-04-02T17:52:01.039Z,18.61
2023-04-02T17:57:19.416Z,18.43
2023-04-02T18:02:43.932Z,18.24
2023-04-02T18:07:55.835Z,18.02
2023-04-02T18:13:02.289Z,17.81
2023-04-02T18:18:23.923Z,17.66
2023-04-02T18:23:37.922Z,17.51
2023-04-02T18:28:46.448Z,17.40
2023-04-02T18:34:11.022Z,17.33
2023-04-02T18:39:57.440Z,17.26
2023-04-02T18:45:14.046Z,17.14
2023-04-02T18:50:39.881Z,17.02
2023-04-02T18:56:24.882Z,16.88
2023-04-02T19:01:47.908Z,16.74
2023-04-02T19:07:09.047Z,16.63
2023-04-02T19:12:27.094Z,16.55
2023-04-02T19:17:46.214Z,16.49
2023-04-02T19:22:54.225Z,16.47
2023-04-02T19:28:11.706Z,16.47
2023-04-02T19:33:37.834Z,16.50
2023-04-02T19:39:03.322Z,16.52
2023-04-02T19:44:11.735Z,16.61
2023-04-02T19:49:17.051Z,16.61
2023-04-02T19:54:19.368Z,16.56
2023-04-02T19:59:22.426Z,16.56
2023-04-02T20:04:25.032Z,16.53
2023-04-02T20:09:27.033Z,16.53
2023-04-02T20:14:29.226Z,16.54
2023-04-02T20:19:32.262Z,16.49
2023-04-02T20:24:34.543Z,16.46
2023-04-02T20:29:36.635Z,16.45
2023-04-02T20:34:39.071Z,16.43
2023-04-02T20:39:41.468Z,16.42
2023-04-02T20:44:43.604Z,16.41
2023-04-02T20:50:10.009Z,16.41
2023-04-02T20:55:20.319Z,16.39
2023-04-02T21:00:25.860Z,16.35
2023-04-02T21:05:32.778Z,16.33
2023-04-02T21:10:40.436Z,16.29
2023-04-02T21:15:45.831Z,16.28
2023-04-02T21:21:15.044Z,16.25
2023-04-02T21:26:22.888Z,16.26
2023-04-02T21:31:31.168Z,16.25
2023-04-02T21:36:36.717Z,16.24
2023-04-02T21:41:41.280Z,16.23
2023-04-02T21:46:44.394Z,16.24
2023-04-02T21:51:47.296Z,16.20
2023-04-02T21:56:49.770Z,16.17
2023-04-02T22:01:52.596Z,16.10
2023-04-02T22:06:54.787Z,15.98
2023-04-02T22:12:02.400Z,15.88
2023-04-02T22:17:04.611Z,15.81
2023-04-02T22:22:06.862Z,15.77
2023-04-02T22:27:08.858Z,15.70
2023-04-02T22:32:11.036Z,15.67
2023-04-02T22:37:14.071Z,15.62
2023-04-02T22:42:16.756Z,15.61
2023-04-02T22:47:18.982Z,15.55
2023-04-02T22:52:24.210Z,15.51
2023-04-02T22:57:26.370Z,15.45
2023-04-02T23:02:28.226Z,15.37
2023-04-02T23:07:35.057Z,15.33
2023-04-02T23:12:44.884Z,15.31
2023-04-02T23:17:50.810Z,15.27
2023-04-02T23:22:53.101Z,15.22
2023-04-02T23:27:55.752Z,15.16
2023-04-02T23:33:08.263Z,15.12
2023-04-02T23:38:20.152Z,15.06
2023-04-02T23:43:44.666Z,14.98
2023-04-02T23:48:53.233Z,14.99
2023-04-02T23:59:46.191Z,14.87
